createdAt,value
2019-02-02T00:00:52.349Z,56.66
2019-02-02T00:02:01.731Z,56.37
2019-02-02T00:03:11.193Z,55.99
2019-02-02T00:04:20.625Z,56.37
2019-02-02T00:05:29.461Z,56.27
2019-02-02T00:06:38.270Z,55.99
2019-02-02T00:07:47.214Z,55.99
2019-02-02T00:08:56.037Z,56.18
2019-02-02T00:10:05.368Z,56.37
2019-02-02T00:11:14.740Z,56.08
2019-02-02T00:12:23.548Z,56.18
2019-02-02T00:13:32.638Z,56.08
2019-02-02T00:14:41.461Z,55.99
2019-02-02T00:15:52.350Z,56.08
2019-02-02T00:17:01.434Z,55.89
2019-02-02T00:18:10.270Z,55.69
2019-02-02T00:19:19.210Z,55.69
2019-02-02T00:20:28.576Z,56.18
2019-02-02T00:21:37.672Z,56.08
2019-02-02T00:22:46.476Z,56.18
2019-02-02T00:23:55.538Z,56.76
2019-02-02T00:25:04.764Z,56.95
2019-02-02T00:26:14.113Z,56.76
2019-02-02T00:27:23.194Z,56.95
2019-02-02T00:28:43.427Z,56.37
2019-02-02T00:29:52.780Z,56.66
2019-02-02T00:31:01.876Z,56.37
2019-02-02T00:32:10.976Z,56.18
2019-02-02T00:33:20.051Z,55.99
2019-02-02T00:34:28.879Z,55.69
2019-02-02T00:35:38.236Z,56.18
2019-02-02T00:36:47.335Z,55.99
2019-02-02T00:37:56.150Z,55.79
2019-02-02T00:39:04.960Z,56.08
2019-02-02T00:40:14.055Z,56.18
2019-02-02T00:41:23.497Z,56.18
2019-02-02T00:42:32.556Z,56.18
2019-02-02T00:43:41.384Z,56.27
2019-02-02T00:44:50.468Z,56.27
2019-02-02T00:45:59.547Z,56.27
2019-02-02T00:47:08.621Z,55.79
2019-02-02T00:48:17.492Z,55.89
2019-02-02T00:49:26.416Z,56.18
2019-02-02T00:50:35.550Z,56.27
2019-02-02T00:51:44.908Z,56.18
2019-02-02T00:52:54.270Z,56.18
2019-02-02T00:54:06.135Z,56.08
2019-02-02T00:55:15.216Z,56.18
2019-02-02T00:56:24.560Z,56.18
2019-02-02T00:57:33.642Z,56.18
2019-02-02T00:58:42.712Z,56.18
2019-02-02T00:59:51.634Z,56.18
2019-02-02T01:01:00.451Z,56.08
2019-02-02T01:02:09.270Z,56.18
2019-02-02T01:03:18.363Z,56.08
2019-02-02T01:04:27.723Z,55.79
2019-02-02T01:05:36.536Z,56.08
2019-02-02T01:06:45.619Z,55.89
2019-02-02T01:07:54.718Z,56.27
2019-02-02T01:09:03.540Z,56.27
2019-02-02T01:10:12.601Z,55.89
2019-02-02T01:11:21.691Z,55.69
2019-02-02T01:12:31.025Z,55.89
2019-02-02T01:13:39.824Z,55.89
2019-02-02T01:14:49.149Z,55.79
2019-02-02T01:15:57.972Z,55.89
2019-02-02T01:17:06.884Z,55.79
2019-02-02T01:18:15.735Z,55.69
2019-02-02T01:19:25.066Z,55.89
2019-02-02T01:20:33.892Z,55.89
2019-02-02T01:21:42.987Z,55.89
2019-02-02T01:22:52.334Z,55.89
2019-02-02T01:24:01.682Z,54.83
2019-02-02T01:25:10.496Z,54.55
2019-02-02T01:26:19.317Z,54.16
2019-02-02T01:27:28.389Z,54.55
2019-02-02T01:28:37.468Z,54.35
2019-02-02T01:29:46.281Z,54.25
2019-02-02T01:30:55.126Z,54.83
2019-02-02T01:32:04.216Z,55.02
2019-02-02T01:33:13.021Z,55.12
2019-02-02T01:34:22.198Z,54.83
2019-02-02T01:35:31.571Z,55.22
2019-02-02T01:36:40.664Z,55.12
2019-02-02T01:37:49.516Z,55.12
2019-02-02T01:38:58.594Z,55.51
2019-02-02T01:40:07.412Z,55.6
2019-02-02T01:41:17.052Z,55.6
2019-02-02T01:42:25.979Z,55.6
2019-02-02T01:43:34.809Z,55.79
2019-02-02T01:44:43.619Z,55.6
2019-02-02T01:45:52.550Z,55.41
2019-02-02T01:47:01.352Z,55.6
2019-02-02T01:48:10.414Z,55.6
2019-02-02T01:49:19.508Z,55.79
2019-02-02T01:50:28.315Z,55.51
2019-02-02T01:51:37.929Z,55.51
2019-02-02T01:52:46.987Z,55.6
2019-02-02T01:53:56.047Z,55.69
2019-02-02T01:55:04.880Z,55.6
2019-02-02T01:56:14.751Z,55.51
2019-02-02T01:57:24.451Z,55.69
2019-02-02T01:58:33.536Z,55.69
2019-02-02T01:59:42.598Z,55.6
2019-02-02T02:00:51.427Z,55.69
2019-02-02T02:02:00.307Z,55.69
2019-02-02T02:03:09.253Z,55.69
2019-02-02T02:04:18.368Z,55.67
2019-02-02T02:05:27.188Z,55.79
2019-02-02T02:06:36.279Z,55.47
2019-02-02T02:07:45.381Z,55.77
2019-02-02T02:08:54.852Z,55.6
2019-02-02T02:10:03.681Z,55.51
2019-02-02T02:11:12.754Z,55.69
2019-02-02T02:12:21.859Z,55.6
2019-02-02T02:13:30.933Z,55.6
2019-02-02T02:14:40.116Z,55.6
2019-02-02T02:15:49.243Z,55.6
2019-02-02T02:16:58.315Z,55.6
2019-02-02T02:18:07.675Z,55.69
2019-02-02T02:19:17.031Z,55.6
2019-02-02T02:20:26.707Z,55.67
2019-02-02T02:21:35.808Z,55.69
2019-02-02T02:22:44.620Z,55.77
2019-02-02T02:23:53.429Z,55.57
2019-02-02T02:25:02.387Z,55.6
2019-02-02T02:26:11.208Z,55.57
2019-02-02T02:27:20.010Z,55.51
2019-02-02T02:28:30.636Z,55.02
2019-02-02T02:29:39.711Z,55.57
2019-02-02T02:30:49.780Z,55.22
2019-02-02T02:31:58.914Z,55.67
2019-02-02T02:33:08.024Z,55.22
2019-02-02T02:34:17.225Z,55
2019-02-02T02:35:26.582Z,55.19
2019-02-02T02:36:35.443Z,55.1
2019-02-02T02:37:44.295Z,55.38
2019-02-02T02:38:53.659Z,54.9
2019-02-02T02:40:02.706Z,55.19
2019-02-02T02:41:11.511Z,55.19
2019-02-02T02:42:20.603Z,55.22
2019-02-02T02:43:29.970Z,55.1
2019-02-02T02:44:38.800Z,55
2019-02-02T02:45:47.915Z,54.9
2019-02-02T02:46:57.298Z,55.1
2019-02-02T02:48:06.443Z,55.19
2019-02-02T02:49:15.259Z,55.02
2019-02-02T02:50:24.391Z,55.1
2019-02-02T02:51:33.998Z,55
2019-02-02T02:52:43.084Z,54.9
2019-02-02T02:53:52.373Z,55.19
2019-02-02T02:55:01.335Z,54.8
2019-02-02T02:56:10.748Z,55.1
2019-02-02T02:57:19.820Z,55.1
2019-02-02T02:58:40.365Z,55.02
